sensor_id;sensor_type;location;lat;lon;timestamp;pressure;altitude;pressure_sealevel;temperature;humidity
7376;BME280;3728;42.266;24.944;2023-11-21T00:00:19;99392.13;;;6.25;87.32
7376;BME280;3728;42.266;24.944;2023-11-21T00:02:46;99398.63;;;6.27;88.37
7376;BME280;3728;42.266;24.944;2023-11-21T00:05:14;99397.91;;;6.22;88.39
7376;BME280;3728;42.266;24.944;2023-11-21T00:07:43;99400.53;;;6.16;88.08
7376;BME280;3728;42.266;24.944;2023-11-21T00:10:11;99404.13;;;6.20;88.40
7376;BME280;3728;42.266;24.944;2023-11-21T00:12:41;99407.53;;;6.21;88.03
7376;BME280;3728;42.266;24.944;2023-11-21T00:15:09;99402.84;;;6.18;88.78
7376;BME280;3728;42.266;24.944;2023-11-21T00:17:40;99406.19;;;6.24;89.26
7376;BME280;3728;42.266;24.944;2023-11-21T00:20:07;99410.91;;;6.22;88.93
7376;BME280;3728;42.266;24.944;2023-11-21T00:22:36;99397.34;;;6.25;88.93
7376;BME280;3728;42.266;24.944;2023-11-21T00:25:03;99401.72;;;6.29;89.77
7376;BME280;3728;42.266;24.944;2023-11-21T00:27:31;99396.00;;;6.27;89.31
7376;BME280;3728;42.266;24.944;2023-11-21T00:29:58;99399.88;;;6.30;90.22
7376;BME280;3728;42.266;24.944;2023-11-21T00:32:25;99396.66;;;6.43;90.78
7376;BME280;3728;42.266;24.944;2023-11-21T00:34:52;99396.13;;;6.41;90.09
7376;BME280;3728;42.266;24.944;2023-11-21T00:37:21;99393.81;;;6.39;89.47
7376;BME280;3728;42.266;24.944;2023-11-21T00:39:48;99390.13;;;6.16;87.13
7376;BME280;3728;42.266;24.944;2023-11-21T00:42:15;99383.28;;;5.97;86.46
7376;BME280;3728;42.266;24.944;2023-11-21T00:44:44;99380.25;;;5.80;87.63
7376;BME280;3728;42.266;24.944;2023-11-21T00:47:11;99387.88;;;5.66;89.34
7376;BME280;3728;42.266;24.944;2023-11-21T00:49:39;99390.22;;;5.68;89.68
7376;BME280;3728;42.266;24.944;2023-11-21T00:52:06;99395.69;;;5.66;88.78
7376;BME280;3728;42.266;24.944;2023-11-21T00:54:33;99390.25;;;5.63;86.44
7376;BME280;3728;42.266;24.944;2023-11-21T00:57:01;99392.91;;;5.58;86.71
7376;BME280;3728;42.266;24.944;2023-11-21T00:59:28;99391.50;;;5.70;87.82
7376;BME280;3728;42.266;24.944;2023-11-21T01:01:57;99386.44;;;5.50;87.53
7376;BME280;3728;42.266;24.944;2023-11-21T01:04:27;99385.91;;;5.53;88.58
7376;BME280;3728;42.266;24.944;2023-11-21T01:06:54;99388.97;;;5.60;88.58
7376;BME280;3728;42.266;24.944;2023-11-21T01:09:24;99388.47;;;5.58;87.36
7376;BME280;3728;42.266;24.944;2023-11-21T01:11:52;99390.03;;;5.54;87.32
7376;BME280;3728;42.266;24.944;2023-11-21T01:14:20;99393.19;;;5.51;87.45
7376;BME280;3728;42.266;24.944;2023-11-21T01:16:47;99398.44;;;5.41;88.17
7376;BME280;3728;42.266;24.944;2023-11-21T01:19:15;99396.09;;;5.39;88.79
7376;BME280;3728;42.266;24.944;2023-11-21T01:21:42;99397.22;;;5.23;88.95
7376;BME280;3728;42.266;24.944;2023-11-21T01:24:09;99400.66;;;5.09;88.94
7376;BME280;3728;42.266;24.944;2023-11-21T01:26:36;99398.13;;;5.04;88.10
7376;BME280;3728;42.266;24.944;2023-11-21T01:29:04;99385.34;;;5.12;89.84
7376;BME280;3728;42.266;24.944;2023-11-21T01:31:31;99386.78;;;5.33;90.28
7376;BME280;3728;42.266;24.944;2023-11-21T01:33:58;99379.06;;;5.18;89.87
7376;BME280;3728;42.266;24.944;2023-11-21T01:36:33;99386.66;;;5.10;90.22
7376;BME280;3728;42.266;24.944;2023-11-21T01:39:00;99377.34;;;5.04;90.61
7376;BME280;3728;42.266;24.944;2023-11-21T01:41:28;99376.22;;;5.20;90.95
7376;BME280;3728;42.266;24.944;2023-11-21T01:43:55;99378.84;;;5.15;90.93
7376;BME280;3728;42.266;24.944;2023-11-21T01:46:23;99371.28;;;5.18;91.12
7376;BME280;3728;42.266;24.944;2023-11-21T01:48:52;99376.78;;;5.07;91.13
7376;BME280;3728;42.266;24.944;2023-11-21T01:51:20;99379.41;;;5.02;91.87
7376;BME280;3728;42.266;24.944;2023-11-21T01:53:47;99382.28;;;5.00;90.66
7376;BME280;3728;42.266;24.944;2023-11-21T01:56:16;99378.38;;;5.03;90.62
7376;BME280;3728;42.266;24.944;2023-11-21T01:58:45;99380.00;;;4.89;91.33
7376;BME280;3728;42.266;24.944;2023-11-21T02:01:13;99377.72;;;4.67;91.13
7376;BME280;3728;42.266;24.944;2023-11-21T02:03:41;99373.31;;;4.67;92.45
7376;BME280;3728;42.266;24.944;2023-11-21T02:06:08;99372.53;;;4.67;92.65
7376;BME280;3728;42.266;24.944;2023-11-21T02:08:35;99377.50;;;4.63;92.40
7376;BME280;3728;42.266;24.944;2023-11-21T02:11:04;99370.44;;;4.74;91.94
7376;BME280;3728;42.266;24.944;2023-11-21T02:13:32;99368.13;;;4.77;92.16
7376;BME280;3728;42.266;24.944;2023-11-21T02:16:01;99357.44;;;4.84;91.80
7376;BME280;3728;42.266;24.944;2023-11-21T02:18:29;99357.16;;;4.85;92.24
7376;BME280;3728;42.266;24.944;2023-11-21T02:20:56;99357.91;;;5.01;92.19
7376;BME280;3728;42.266;24.944;2023-11-21T02:23:23;99364.88;;;5.06;91.92
7376;BME280;3728;42.266;24.944;2023-11-21T02:25:55;99363.78;;;5.17;91.50
7376;BME280;3728;42.266;24.944;2023-11-21T02:28:23;99369.97;;;5.26;91.05
7376;BME280;3728;42.266;24.944;2023-11-21T02:30:53;99379.84;;;5.19;91.29
7376;BME280;3728;42.266;24.944;2023-11-21T02:33:24;99374.91;;;5.27;91.14
7376;BME280;3728;42.266;24.944;2023-11-21T02:35:52;99377.84;;;5.11;91.02
7376;BME280;3728;42.266;24.944;2023-11-21T02:38:21;99367.38;;;5.21;90.75
7376;BME280;3728;42.266;24.944;2023-11-21T02:40:49;99367.88;;;5.28;91.12
7376;BME280;3728;42.266;24.944;2023-11-21T02:43:16;99367.44;;;5.16;91.00
7376;BME280;3728;42.266;24.944;2023-11-21T02:45:44;99377.06;;;5.05;91.49
7376;BME280;3728;42.266;24.944;2023-11-21T02:48:12;99384.03;;;5.15;92.46
7376;BME280;3728;42.266;24.944;2023-11-21T02:50:39;99386.63;;;5.20;91.29
7376;BME280;3728;42.266;24.944;2023-11-21T02:53:07;99387.66;;;5.19;91.77
7376;BME280;3728;42.266;24.944;2023-11-21T02:55:34;99388.94;;;5.16;91.10
7376;BME280;3728;42.266;24.944;2023-11-21T02:58:02;99391.31;;;5.13;91.47
7376;BME280;3728;42.266;24.944;2023-11-21T03:00:33;99391.06;;;5.09;91.60
7376;BME280;3728;42.266;24.944;2023-11-21T03:03:00;99384.84;;;5.05;91.55
7376;BME280;3728;42.266;24.944;2023-11-21T03:05:27;99388.25;;;5.06;90.44
7376;BME280;3728;42.266;24.944;2023-11-21T03:07:55;99389.78;;;5.02;90.71
7376;BME280;3728;42.266;24.944;2023-11-21T03:10:25;99388.75;;;5.03;90.64
7376;BME280;3728;42.266;24.944;2023-11-21T03:12:55;99378.88;;;5.05;91.39
7376;BME280;3728;42.266;24.944;2023-11-21T03:15:24;99377.09;;;5.00;91.59
7376;BME280;3728;42.266;24.944;2023-11-21T03:17:51;99374.78;;;4.99;91.66
7376;BME280;3728;42.266;24.944;2023-11-21T03:20:21;99383.56;;;5.03;92.23
7376;BME280;3728;42.266;24.944;2023-11-21T03:22:48;99378.66;;;5.01;93.06
7376;BME280;3728;42.266;24.944;2023-11-21T03:25:15;99374.75;;;5.04;93.21
7376;BME280;3728;42.266;24.944;2023-11-21T03:27:44;99372.19;;;4.94;93.32
7376;BME280;3728;42.266;24.944;2023-11-21T03:30:11;99374.75;;;5.04;94.45
7376;BME280;3728;42.266;24.944;2023-11-21T03:32:38;99378.88;;;5.05;93.87
7376;BME280;3728;42.266;24.944;2023-11-21T03:35:06;99370.31;;;5.09;93.25
7376;BME280;3728;42.266;24.944;2023-11-21T03:37:34;99370.53;;;5.18;93.26
7376;BME280;3728;42.266;24.944;2023-11-21T03:40:01;99377.84;;;5.11;93.43
7376;BME280;3728;42.266;24.944;2023-11-21T03:42:31;99376.72;;;5.27;93.34
7376;BME280;3728;42.266;24.944;2023-11-21T03:44:59;99371.25;;;5.23;93.81
7376;BME280;3728;42.266;24.944;2023-11-21T03:47:27;99377.25;;;5.24;93.91
7376;BME280;3728;42.266;24.944;2023-11-21T03:49:54;99379.50;;;5.35;94.88
7376;BME280;3728;42.266;24.944;2023-11-21T03:52:22;99381.28;;;5.45;94.22
7376;BME280;3728;42.266;24.944;2023-11-21T03:54:49;99379.97;;;5.47;92.87
7376;BME280;3728;42.266;24.944;2023-11-21T03:57:16;99384.88;;;5.49;93.21
7376;BME280;3728;42.266;24.944;2023-11-21T03:59:43;99380.97;;;5.51;92.75
7376;BME280;3728;42.266;24.944;2023-11-21T04:02:10;99377.06;;;5.54;93.09
7376;BME280;3728;42.266;24.944;2023-11-21T04:04:38;99381.78;;;5.47;92.73
7376;BME280;3728;42.266;24.944;2023-11-21T04:07:08;99382.09;;;5.40;93.40
7376;BME280;3728;42.266;24.944;2023-11-21T04:09:35;99389.59;;;5.42;93.53
7376;BME280;3728;42.266;24.944;2023-11-21T04:12:03;99388.06;;;5.41;93.53
7376;BME280;3728;42.266;24.944;2023-11-21T04:14:30;99390.13;;;5.44;94.65
7376;BME280;3728;42.266;24.944;2023-11-21T04:16:58;99394.25;;;5.45;93.82
7376;BME280;3728;42.266;24.944;2023-11-21T04:19:25;99406.88;;;5.62;93.50
7376;BME280;3728;42.266;24.944;2023-11-21T04:21:53;99406.56;;;5.68;93.06
7376;BME280;3728;42.266;24.944;2023-11-21T04:24:20;99396.69;;;5.70;93.35
7376;BME280;3728;42.266;24.944;2023-11-21T04:26:47;99395.38;;;5.73;92.90
7376;BME280;3728;42.266;24.944;2023-11-21T04:29:14;99398.06;;;5.63;92.71
7376;BME280;3728;42.266;24.944;2023-11-21T04:31:41;99396.28;;;5.58;93.09
7376;BME280;3728;42.266;24.944;2023-11-21T04:34:08;99397.84;;;5.54;93.42
7376;BME280;3728;42.266;24.944;2023-11-21T04:36:36;99393.69;;;5.58;93.51
7376;BME280;3728;42.266;24.944;2023-11-21T04:39:03;99393.13;;;5.61;94.17
7376;BME280;3728;42.266;24.944;2023-11-21T04:41:30;99399.63;;;5.59;93.87
7376;BME280;3728;42.266;24.944;2023-11-21T04:43:58;99398.28;;;5.66;93.37
7376;BME280;3728;42.266;24.944;2023-11-21T04:46:28;99400.13;;;5.61;93.06
7376;BME280;3728;42.266;24.944;2023-11-21T04:48:56;99403.31;;;5.52;92.76
7376;BME280;3728;42.266;24.944;2023-11-21T04:51:23;99403.66;;;5.36;92.36
7376;BME280;3728;42.266;24.944;2023-11-21T04:53:50;99405.81;;;5.19;91.91
7376;BME280;3728;42.266;24.944;2023-11-21T04:56:17;99408.38;;;5.24;92.17
7376;BME280;3728;42.266;24.944;2023-11-21T04:58:48;99418.31;;;5.07;94.69
7376;BME280;3728;42.266;24.944;2023-11-21T05:01:15;99412.09;;;5.13;94.78
7376;BME280;3728;42.266;24.944;2023-11-21T05:03:45;99417.97;;;5.28;93.88
7376;BME280;3728;42.266;24.944;2023-11-21T05:06:14;99420.00;;;5.41;91.98
7376;BME280;3728;42.266;24.944;2023-11-21T05:08:41;99411.50;;;5.26;92.97
7376;BME280;3728;42.266;24.944;2023-11-21T05:11:08;99410.72;;;5.25;93.43
7376;BME280;3728;42.266;24.944;2023-11-21T05:13:37;99411.25;;;5.27;93.70
7376;BME280;3728;42.266;24.944;2023-11-21T05:16:06;99421.84;;;5.36;93.11
7376;BME280;3728;42.266;24.944;2023-11-21T05:18:34;99416.00;;;5.54;92.25
7376;BME280;3728;42.266;24.944;2023-11-21T05:21:01;99421.78;;;5.46;92.22
7376;BME280;3728;42.266;24.944;2023-11-21T05:23:29;99428.34;;;5.33;91.82
7376;BME280;3728;42.266;24.944;2023-11-21T05:25:58;99416.38;;;5.32;93.31
7376;BME280;3728;42.266;24.944;2023-11-21T05:28:28;99411.72;;;5.34;93.75
7376;BME280;3728;42.266;24.944;2023-11-21T05:30:55;99407.34;;;5.30;94.31
7376;BME280;3728;42.266;24.944;2023-11-21T05:33:40;99405.94;;;5.47;94.41
7376;BME280;3728;42.266;24.944;2023-11-21T05:36:08;99403.09;;;5.44;94.89
7376;BME280;3728;42.266;24.944;2023-11-21T05:38:36;99409.84;;;5.45;94.64
7376;BME280;3728;42.266;24.944;2023-11-21T05:41:04;99398.41;;;5.51;94.29
7376;BME280;3728;42.266;24.944;2023-11-21T05:43:31;99407.78;;;5.42;94.19
7376;BME280;3728;42.266;24.944;2023-11-21T05:45:59;99413.72;;;5.47;92.71
7376;BME280;3728;42.266;24.944;2023-11-21T05:48:27;99422.50;;;5.57;91.05
7376;BME280;3728;42.266;24.944;2023-11-21T05:50:54;99430.13;;;5.38;90.08
7376;BME280;3728;42.266;24.944;2023-11-21T05:53:21;99423.75;;;5.15;90.79
7376;BME280;3728;42.266;24.944;2023-11-21T05:55:48;99416.78;;;5.06;91.68
7376;BME280;3728;42.266;24.944;2023-11-21T05:58:15;99417.63;;;4.91;92.41
7376;BME280;3728;42.266;24.944;2023-11-21T06:00:43;99419.91;;;4.98;93.25
7376;BME280;3728;42.266;24.944;2023-11-21T06:03:10;99417.84;;;5.00;92.76
7376;BME280;3728;42.266;24.944;2023-11-21T06:05:37;99425.09;;;5.03;93.08
7376;BME280;3728;42.266;24.944;2023-11-21T06:08:05;99424.03;;;5.09;94.55
7376;BME280;3728;42.266;24.944;2023-11-21T06:10:34;99420.38;;;5.15;93.88
7376;BME280;3728;42.266;24.944;2023-11-21T06:13:01;99425.28;;;5.16;94.17
7376;BME280;3728;42.266;24.944;2023-11-21T06:15:31;99437.84;;;5.53;90.95
7376;BME280;3728;42.266;24.944;2023-11-21T06:17:58;99442.34;;;5.37;91.34
7376;BME280;3728;42.266;24.944;2023-11-21T06:20:26;99437.59;;;5.49;91.40
7376;BME280;3728;42.266;24.944;2023-11-21T06:22:54;99434.44;;;5.63;92.54
7376;BME280;3728;42.266;24.944;2023-11-21T06:25:21;99426.78;;;5.81;91.87
7376;BME280;3728;42.266;24.944;2023-11-21T06:27:51;99438.88;;;5.96;92.51
7376;BME280;3728;42.266;24.944;2023-11-21T06:30:20;99444.69;;;6.22;92.23
7376;BME280;3728;42.266;24.944;2023-11-21T06:32:48;99452.59;;;6.40;90.99
7376;BME280;3728;42.266;24.944;2023-11-21T06:35:16;99447.50;;;6.59;91.66
7376;BME280;3728;42.266;24.944;2023-11-21T06:37:44;99443.34;;;6.81;90.39
7376;BME280;3728;42.266;24.944;2023-11-21T06:40:17;99451.66;;;7.07;89.76
7376;BME280;3728;42.266;24.944;2023-11-21T06:42:46;99449.31;;;7.29;89.08
7376;BME280;3728;42.266;24.944;2023-11-21T06:45:15;99452.84;;;7.38;88.36
7376;BME280;3728;42.266;24.944;2023-11-21T06:47:43;99454.56;;;7.48;88.54
7376;BME280;3728;42.266;24.944;2023-11-21T06:50:13;99452.81;;;7.62;87.90
7376;BME280;3728;42.266;24.944;2023-11-21T06:52:44;99451.41;;;7.70;88.14
7376;BME280;3728;42.266;24.944;2023-11-21T06:55:11;99443.34;;;7.85;88.26
7376;BME280;3728;42.266;24.944;2023-11-21T06:57:39;99451.44;;;8.02;88.08
7376;BME280;3728;42.266;24.944;2023-11-21T07:00:06;99456.22;;;8.13;87.61
7376;BME280;3728;42.266;24.944;2023-11-21T07:02:36;99449.28;;;8.22;87.44
7376;BME280;3728;42.266;24.944;2023-11-21T07:05:04;99442.22;;;8.42;88.49
7376;BME280;3728;42.266;24.944;2023-11-21T07:07:32;99451.47;;;8.66;87.40
7376;BME280;3728;42.266;24.944;2023-11-21T07:10:03;99452.81;;;8.77;85.41
7376;BME280;3728;42.266;24.944;2023-11-21T07:12:32;99449.53;;;8.99;85.06
7376;BME280;3728;42.266;24.944;2023-11-21T07:15:03;99449.31;;;9.09;83.91
7376;BME280;3728;42.266;24.944;2023-11-21T07:17:36;99451.66;;;9.24;83.58
7376;BME280;3728;42.266;24.944;2023-11-21T07:20:07;99452.22;;;9.35;83.73
7376;BME280;3728;42.266;24.944;2023-11-21T07:22:35;99448.13;;;9.56;82.24
7376;BME280;3728;42.266;24.944;2023-11-21T07:25:03;99447.97;;;9.75;81.95
7376;BME280;3728;42.266;24.944;2023-11-21T07:27:31;99443.63;;;9.92;81.84
7376;BME280;3728;42.266;24.944;2023-11-21T07:30:03;99441.28;;;10.04;80.30
7376;BME280;3728;42.266;24.944;2023-11-21T07:32:35;99438.19;;;10.02;78.91
7376;BME280;3728;42.266;24.944;2023-11-21T07:35:04;99443.25;;;10.21;79.39
7376;BME280;3728;42.266;24.944;2023-11-21T07:37:31;99434.03;;;10.46;77.63
7376;BME280;3728;42.266;24.944;2023-11-21T07:40:19;99445.34;;;10.63;77.71
7376;BME280;3728;42.266;24.944;2023-11-21T07:42:46;99447.38;;;10.75;77.37
7376;BME280;3728;42.266;24.944;2023-11-21T07:45:14;99452.28;;;10.68;76.99
7376;BME280;3728;42.266;24.944;2023-11-21T07:47:42;99456.19;;;10.79;77.69
7376;BME280;3728;42.266;24.944;2023-11-21T07:50:09;99459.31;;;10.89;77.68
7376;BME280;3728;42.266;24.944;2023-11-21T07:52:37;99456.78;;;11.15;75.87
7376;BME280;3728;42.266;24.944;2023-11-21T07:55:04;99459.78;;;11.39;74.53
7376;BME280;3728;42.266;24.944;2023-11-21T07:57:32;99459.34;;;11.63;72.41
7376;BME280;3728;42.266;24.944;2023-11-21T07:59:59;99462.91;;;11.76;72.08
7376;BME280;3728;42.266;24.944;2023-11-21T08:02:27;99466.03;;;12.03;71.06
7376;BME280;3728;42.266;24.944;2023-11-21T08:04:54;99455.47;;;12.20;70.00
7376;BME280;3728;42.266;24.944;2023-11-21T08:07:24;99462.25;;;12.39;68.24
7376;BME280;3728;42.266;24.944;2023-11-21T08:09:51;99469.63;;;12.62;67.65
7376;BME280;3728;42.266;24.944;2023-11-21T08:12:19;99466.75;;;12.84;67.41
7376;BME280;3728;42.266;24.944;2023-11-21T08:14:47;99460.50;;;13.06;64.30
7376;BME280;3728;42.266;24.944;2023-11-21T08:17:14;99465.88;;;13.39;63.63
7376;BME280;3728;42.266;24.944;2023-11-21T08:19:46;99453.25;;;13.53;61.80
7376;BME280;3728;42.266;24.944;2023-11-21T08:22:16;99457.09;;;13.76;60.25
7376;BME280;3728;42.266;24.944;2023-11-21T08:24:44;99452.78;;;13.92;60.18
7376;BME280;3728;42.266;24.944;2023-11-21T08:27:13;99448.72;;;14.15;58.37
7376;BME280;3728;42.266;24.944;2023-11-21T08:29:43;99453.06;;;14.32;56.57
7376;BME280;3728;42.266;24.944;2023-11-21T08:32:10;99451.97;;;14.33;56.46
7376;BME280;3728;42.266;24.944;2023-11-21T08:34:37;99454.09;;;14.39;56.60
7376;BME280;3728;42.266;24.944;2023-11-21T08:37:07;99454.81;;;15.09;54.24
7376;BME280;3728;42.266;24.944;2023-11-21T08:39:34;99449.75;;;14.92;54.76
7376;BME280;3728;42.266;24.944;2023-11-21T08:42:01;99453.72;;;14.74;55.83
7376;BME280;3728;42.266;24.944;2023-11-21T08:44:29;99447.47;;;14.78;54.59
7376;BME280;3728;42.266;24.944;2023-11-21T08:46:57;99448.88;;;14.76;54.38
7376;BME280;3728;42.266;24.944;2023-11-21T08:49:25;99449.22;;;15.11;53.63
7376;BME280;3728;42.266;24.944;2023-11-21T08:51:54;99447.31;;;15.35;50.96
7376;BME280;3728;42.266;24.944;2023-11-21T08:54:22;99440.06;;;15.32;51.72
7376;BME280;3728;42.266;24.944;2023-11-21T08:56:50;99429.94;;;15.46;51.90
7376;BME280;3728;42.266;24.944;2023-11-21T08:59:17;99423.84;;;15.98;49.67
7376;BME280;3728;42.266;24.944;2023-11-21T09:01:44;99414.72;;;15.95;50.21
7376;BME280;3728;42.266;24.944;2023-11-21T09:04:12;99411.28;;;15.95;51.11
7376;BME280;3728;42.266;24.944;2023-11-21T09:06:39;99405.88;;;16.03;49.24
7376;BME280;3728;42.266;24.944;2023-11-21T09:09:06;99407.34;;;16.16;48.35
7376;BME280;3728;42.266;24.944;2023-11-21T09:11:35;99409.19;;;16.59;46.66
7376;BME280;3728;42.266;24.944;2023-11-21T09:14:03;99394.09;;;16.01;49.06
7376;BME280;3728;42.266;24.944;2023-11-21T09:16:30;99397.47;;;15.86;49.48
7376;BME280;3728;42.266;24.944;2023-11-21T09:18:58;99405.16;;;15.91;48.56
7376;BME280;3728;42.266;24.944;2023-11-21T09:21:28;99397.19;;;16.03;47.85
7376;BME280;3728;42.266;24.944;2023-11-21T09:23:55;99386.41;;;15.80;48.73
7376;BME280;3728;42.266;24.944;2023-11-21T09:26:23;99378.75;;;15.91;48.15
7376;BME280;3728;42.266;24.944;2023-11-21T09:28:50;99380.81;;;15.69;48.67
7376;BME280;3728;42.266;24.944;2023-11-21T09:31:17;99377.94;;;15.74;48.67
7376;BME280;3728;42.266;24.944;2023-11-21T09:33:46;99378.34;;;15.61;49.29
7376;BME280;3728;42.266;24.944;2023-11-21T09:36:14;99375.19;;;15.71;48.75
7376;BME280;3728;42.266;24.944;2023-11-21T09:38:42;99373.38;;;15.59;48.88
7376;BME280;3728;42.266;24.944;2023-11-21T09:41:17;99362.53;;;15.49;49.38
7376;BME280;3728;42.266;24.944;2023-11-21T09:43:57;99361.09;;;15.51;49.39
7376;BME280;3728;42.266;24.944;2023-11-21T09:46:27;99361.88;;;15.52;49.77
7376;BME280;3728;42.266;24.944;2023-11-21T09:49:00;99363.16;;;15.58;49.38
7376;BME280;3728;42.266;24.944;2023-11-21T09:51:32;99362.94;;;15.79;47.84
7376;BME280;3728;42.266;24.944;2023-11-21T09:54:05;99360.28;;;15.63;48.35
7376;BME280;3728;42.266;24.944;2023-11-21T09:56:36;99355.00;;;15.63;48.45
7376;BME280;3728;42.266;24.944;2023-11-21T09:59:05;99357.84;;;15.70;48.86
7376;BME280;3728;42.266;24.944;2023-11-21T10:01:38;99356.09;;;15.90;47.84
7376;BME280;3728;42.266;24.944;2023-11-21T10:04:08;99348.00;;;15.98;48.30
7376;BME280;3728;42.266;24.944;2023-11-21T10:06:41;99354.66;;;16.23;47.77
7376;BME280;3728;42.266;24.944;2023-11-21T10:09:10;99346.66;;;16.20;46.76
7376;BME280;3728;42.266;24.944;2023-11-21T10:11:41;99339.50;;;16.20;47.33
7376;BME280;3728;42.266;24.944;2023-11-21T10:14:12;99331.97;;;16.07;47.40
7376;BME280;3728;42.266;24.944;2023-11-21T10:16:41;99321.78;;;16.05;47.71
7376;BME280;3728;42.266;24.944;2023-11-21T10:19:10;99317.00;;;16.26;48.13
7376;BME280;3728;42.266;24.944;2023-11-21T10:21:42;99307.88;;;16.24;47.98
7376;BME280;3728;42.266;24.944;2023-11-21T10:24:09;99296.78;;;16.34;47.68
7376;BME280;3728;42.266;24.944;2023-11-21T10:26:37;99290.97;;;16.44;47.12
7376;BME280;3728;42.266;24.944;2023-11-21T10:29:19;99297.03;;;16.60;46.62
7376;BME280;3728;42.266;24.944;2023-11-21T10:31:51;99286.25;;;16.69;46.97
7376;BME280;3728;42.266;24.944;2023-11-21T10:34:21;99283.72;;;16.91;47.09
7376;BME280;3728;42.266;24.944;2023-11-21T10:37:12;99284.44;;;16.88;47.62
7376;BME280;3728;42.266;24.944;2023-11-21T10:39:40;99288.72;;;16.96;46.31
7376;BME280;3728;42.266;24.944;2023-11-21T10:42:10;99281.31;;;17.21;45.77
7376;BME280;3728;42.266;24.944;2023-11-21T10:44:42;99268.25;;;17.13;45.47
7376;BME280;3728;42.266;24.944;2023-11-21T10:47:11;99267.09;;;17.10;45.44
7376;BME280;3728;42.266;24.944;2023-11-21T10:49:39;99262.56;;;17.10;45.79
7376;BME280;3728;42.266;24.944;2023-11-21T10:52:07;99256.81;;;17.05;45.40
7376;BME280;3728;42.266;24.944;2023-11-21T10:54:36;99257.34;;;17.14;46.43
7376;BME280;3728;42.266;24.944;2023-11-21T10:57:05;99253.72;;;17.22;45.91
7376;BME280;3728;42.266;24.944;2023-11-21T10:59:34;99252.78;;;17.34;46.37
7376;BME280;3728;42.266;24.944;2023-11-21T11:02:25;99257.94;;;17.46;46.59
7376;BME280;3728;42.266;24.944;2023-11-21T11:04:56;99251.69;;;17.54;46.84
7376;BME280;3728;42.266;24.944;2023-11-21T11:07:27;99252.31;;;17.47;46.78
7376;BME280;3728;42.266;24.944;2023-11-21T11:09:55;99238.34;;;17.50;45.96
7376;BME280;3728;42.266;24.944;2023-11-21T11:12:23;99238.22;;;17.43;46.17
7376;BME280;3728;42.266;24.944;2023-11-21T11:14:51;99239.69;;;17.60;45.84
7376;BME280;3728;42.266;24.944;2023-11-21T11:17:19;99236.56;;;17.77;45.30
7376;BME280;3728;42.266;24.944;2023-11-21T11:19:47;99232.25;;;17.69;46.27
7376;BME280;3728;42.266;24.944;2023-11-21T11:22:56;99219.81;;;17.50;46.86
7376;BME280;3728;42.266;24.944;2023-11-21T11:28:21;99220.19;;;17.94;44.73
7376;BME280;3728;42.266;24.944;2023-11-21T11:34:23;99199.59;;;17.20;46.69
7376;BME280;3728;42.266;24.944;2023-11-21T11:37:02;99192.84;;;17.22;45.79
7376;BME280;3728;42.266;24.944;2023-11-21T11:39:35;99182.63;;;17.01;46.29
7376;BME280;3728;42.266;24.944;2023-11-21T11:42:06;99171.94;;;17.17;46.16
7376;BME280;3728;42.266;24.944;2023-11-21T11:50:04;99147.53;;;16.28;48.50
7376;BME280;3728;42.266;24.944;2023-11-21T11:52:53;99139.03;;;16.19;48.59
7376;BME280;3728;42.266;24.944;2023-11-21T11:55:23;99116.41;;;16.02;48.81
7376;BME280;3728;42.266;24.944;2023-11-21T11:57:52;99113.72;;;15.83;49.55
7376;BME280;3728;42.266;24.944;2023-11-21T12:02:55;99136.69;;;15.63;50.93
7376;BME280;3728;42.266;24.944;2023-11-21T12:05:26;99144.78;;;16.05;49.88
7376;BME280;3728;42.266;24.944;2023-11-21T12:08:03;99132.09;;;16.11;50.74
7376;BME280;3728;42.266;24.944;2023-11-21T12:10:36;99125.16;;;15.87;51.24
7376;BME280;3728;42.266;24.944;2023-11-21T12:13:08;99117.25;;;16.06;50.38
7376;BME280;3728;42.266;24.944;2023-11-21T12:15:38;99119.22;;;16.28;50.51
7376;BME280;3728;42.266;24.944;2023-11-21T12:18:07;99111.72;;;16.30;50.24
7376;BME280;3728;42.266;24.944;2023-11-21T12:20:34;99113.59;;;16.30;51.02
7376;BME280;3728;42.266;24.944;2023-11-21T12:23:09;99117.91;;;16.19;51.64
7376;BME280;3728;42.266;24.944;2023-11-21T12:25:37;99122.00;;;16.16;51.69
7376;BME280;3728;42.266;24.944;2023-11-21T12:28:09;99122.47;;;16.03;52.62
7376;BME280;3728;42.266;24.944;2023-11-21T12:30:36;99116.91;;;16.08;53.03
7376;BME280;3728;42.266;24.944;2023-11-21T12:33:05;99122.53;;;16.06;53.36
7376;BME280;3728;42.266;24.944;2023-11-21T12:35:36;99119.94;;;15.91;54.18
7376;BME280;3728;42.266;24.944;2023-11-21T12:38:04;99110.78;;;16.04;53.35
7376;BME280;3728;42.266;24.944;2023-11-21T12:40:32;99108.69;;;15.94;54.05
7376;BME280;3728;42.266;24.944;2023-11-21T12:43:21;99115.38;;;15.72;54.94
7376;BME280;3728;42.266;24.944;2023-11-21T12:45:49;99115.16;;;15.81;55.42
7376;BME280;3728;42.266;24.944;2023-11-21T12:48:17;99106.81;;;15.94;54.88
7376;BME280;3728;42.266;24.944;2023-11-21T12:51:12;99118.00;;;16.07;54.62
7376;BME280;3728;42.266;24.944;2023-11-21T12:53:42;99113.94;;;16.48;52.63
7376;BME280;3728;42.266;24.944;2023-11-21T12:56:13;99105.88;;;16.40;53.42
7376;BME280;3728;42.266;24.944;2023-11-21T12:58:44;99097.31;;;16.28;53.75
7376;BME280;3728;42.266;24.944;2023-11-21T13:01:14;99075.56;;;16.34;53.81
7376;BME280;3728;42.266;24.944;2023-11-21T13:03:48;99081.59;;;16.35;53.86
7376;BME280;3728;42.266;24.944;2023-11-21T13:06:18;99065.41;;;16.36;54.29
7376;BME280;3728;42.266;24.944;2023-11-21T13:08:46;99050.81;;;16.23;54.83
7376;BME280;3728;42.266;24.944;2023-11-21T13:11:14;99059.13;;;16.25;55.28
7376;BME280;3728;42.266;24.944;2023-11-21T13:13:42;99071.25;;;16.46;54.75
7376;BME280;3728;42.266;24.944;2023-11-21T13:16:10;99076.84;;;16.60;53.17
7376;BME280;3728;42.266;24.944;2023-11-21T13:18:37;99080.78;;;16.69;52.36
7376;BME280;3728;42.266;24.944;2023-11-21T13:21:08;99076.59;;;16.49;53.50
7376;BME280;3728;42.266;24.944;2023-11-21T13:23:44;99080.22;;;16.41;53.29
7376;BME280;3728;42.266;24.944;2023-11-21T13:26:13;99077.97;;;16.05;54.23
7376;BME280;3728;42.266;24.944;2023-11-21T13:28:42;99085.09;;;15.85;55.12
7376;BME280;3728;42.266;24.944;2023-11-21T13:31:13;99090.66;;;15.64;55.63
7376;BME280;3728;42.266;24.944;2023-11-21T13:33:53;99096.81;;;15.53;56.37
7376;BME280;3728;42.266;24.944;2023-11-21T13:36:31;99098.31;;;15.38;56.12
7376;BME280;3728;42.266;24.944;2023-11-21T13:39:02;99096.75;;;15.49;55.70
7376;BME280;3728;42.266;24.944;2023-11-21T13:41:35;99096.34;;;15.47;55.40